Pony, Montana
Current Conditions -  °F | °C
As of 12:53 PM on Sunday 23 Nov 2014 (Local Time) from KBTM Reporting Station
Overcast Overcast  
Wind Chill: 26°   Ceiling: 5500
Heat Index: 32°   Visibility: 10mi
Dew Point: 17°   Wind: 6mph
Humidity: 54%   Direction: 280°W
Pressure: 30.01"   Gusts: NA
Location:  45.65°N, 111.89°W
Report Text: KBTM 231953Z AUTO 28005KT 10SM OVC055 00/M08 A3001 RMK AO2 SLP193 T00001083
Loading
Personal Weather Stations






























Interactive Weather Map New forecast layout! Learn more

10-Day Weather Forecast

Advertisements
Track Severe Weather on mobile